SAS4126 ENGM-ENBO
Flight info
| Callsign | SAS4126 |
|---|---|
| Flight time | 1h 7m |
| Altitude | 41000 |
| Route | RIBBE DCT GIGNI DCT SOMUB DCT ODNOS |
| Aircraft | B736/M-SDE2E3FGHIRWXY/LB1 |
Departure
| Time | 2026-05-04 21:31 |
|---|---|
| Airport | Oslo-Gardermoen International Airport (ENGM) |
Arrival
| Time | 2026-05-04 22:38 |
|---|---|
| Airport | Bodø Airport (ENBO) |
| Time | Latitude | Longitude | Altitude | Speed | Heading |
|---|---|---|---|---|---|
| 2026-05-04 21:08 | 60.19517 | 11.09732 | 684 ft | 0 kts | 196° |
| 2026-05-04 21:22 | 60.19537 | 11.09743 | 677 ft | 4 kts | 196° |
| 2026-05-04 21:23 | 60.19559 | 11.09756 | 678 ft | 1 kts | 196° |
| 2026-05-04 21:25 | 60.19558 | 11.09755 | 684 ft | 1 kts | 195° |
| 2026-05-04 21:25 | 60.19554 | 11.09775 | 679 ft | 2 kts | 93° |
| 2026-05-04 21:26 | 60.19581 | 11.09796 | 681 ft | 8 kts | 320° |
| 2026-05-04 21:26 | 60.19639 | 11.09681 | 679 ft | 14 kts | 297° |
| 2026-05-04 21:26 | 60.19667 | 11.09499 | 680 ft | 13 kts | 285° |
| 2026-05-04 21:26 | 60.19691 | 11.09322 | 682 ft | 13 kts | 287° |
| 2026-05-04 21:27 | 60.19717 | 11.09155 | 680 ft | 13 kts | 288° |
| 2026-05-04 21:27 | 60.19741 | 11.08986 | 678 ft | 12 kts | 283° |
| 2026-05-04 21:27 | 60.19763 | 11.08804 | 676 ft | 15 kts | 283° |
| 2026-05-04 21:27 | 60.19725 | 11.08646 | 677 ft | 14 kts | 205° |
| 2026-05-04 21:28 | 60.19610 | 11.08576 | 677 ft | 22 kts | 195° |
| 2026-05-04 21:28 | 60.19455 | 11.08491 | 676 ft | 23 kts | 195° |
| 2026-05-04 21:28 | 60.19304 | 11.08400 | 672 ft | 22 kts | 200° |
| 2026-05-04 21:28 | 60.19234 | 11.08203 | 672 ft | 18 kts | 279° |
| 2026-05-04 21:29 | 60.19259 | 11.08006 | 669 ft | 2 kts | 285° |
| 2026-05-04 21:29 | 60.19263 | 11.07982 | 668 ft | 2 kts | 284° |
| 2026-05-04 21:29 | 60.19266 | 11.07959 | 671 ft | 2 kts | 284° |
| 2026-05-04 21:29 | 60.19268 | 11.07937 | 671 ft | 2 kts | 284° |
| 2026-05-04 21:30 | 60.19271 | 11.07917 | 671 ft | 1 kts | 284° |
| 2026-05-04 21:30 | 60.19275 | 11.07888 | 671 ft | 4 kts | 288° |
| 2026-05-04 21:30 | 60.19323 | 11.07839 | 671 ft | 16 kts | 11° |
| 2026-05-04 21:30 | 60.19648 | 11.08034 | 673 ft | 89 kts | 15° |
| 2026-05-04 21:31 | 60.21501 | 11.09133 | 1375 ft | 159 kts | 15° |
| 2026-05-04 21:31 | 60.22564 | 11.09786 | 2310 ft | 155 kts | 15° |
| 2026-05-04 21:31 | 60.23619 | 11.10368 | 3122 ft | 166 kts | 12° |
| 2026-05-04 21:32 | 60.24865 | 11.11015 | 3505 ft | 206 kts | 9° |
| 2026-05-04 21:32 | 60.26379 | 11.11446 | 3809 ft | 231 kts | 348° |
| 2026-05-04 21:32 | 60.28042 | 11.10887 | 4392 ft | 254 kts | 345° |
| 2026-05-04 21:32 | 60.29796 | 11.10297 | 5485 ft | 257 kts | 346° |
| 2026-05-04 21:33 | 60.31576 | 11.09769 | 6638 ft | 261 kts | 351° |
| 2026-05-04 21:33 | 60.33421 | 11.09935 | 7723 ft | 269 kts | 0° |
| 2026-05-04 21:33 | 60.35287 | 11.10331 | 8670 ft | 276 kts | 1° |
| 2026-05-04 21:33 | 60.37244 | 11.10781 | 9684 ft | 282 kts | 1° |
| 2026-05-04 21:34 | 60.39196 | 11.11233 | 10491 ft | 295 kts | 0° |
| 2026-05-04 21:34 | 60.41330 | 11.11708 | 10924 ft | 319 kts | 0° |
| 2026-05-04 21:34 | 60.43564 | 11.12210 | 11807 ft | 325 kts | 360° |
| 2026-05-04 21:34 | 60.45819 | 11.12722 | 12752 ft | 328 kts | 359° |
| 2026-05-04 21:35 | 60.48113 | 11.13239 | 13600 ft | 335 kts | 358° |
| 2026-05-04 21:35 | 60.50448 | 11.13759 | 14394 ft | 341 kts | 358° |
| 2026-05-04 21:35 | 60.52823 | 11.14288 | 15162 ft | 347 kts | 358° |
| 2026-05-04 21:35 | 60.55246 | 11.14828 | 15935 ft | 353 kts | 358° |
| 2026-05-04 21:36 | 60.57709 | 11.15379 | 16684 ft | 356 kts | 357° |
| 2026-05-04 21:36 | 60.60180 | 11.15930 | 17409 ft | 362 kts | 356° |
| 2026-05-04 21:36 | 60.62732 | 11.16490 | 18006 ft | 372 kts | 356° |
| 2026-05-04 21:36 | 60.65316 | 11.17066 | 18781 ft | 376 kts | 356° |
| 2026-05-04 21:37 | 60.67938 | 11.17654 | 19540 ft | 381 kts | 356° |
| 2026-05-04 21:37 | 60.70587 | 11.18250 | 20253 ft | 385 kts | 356° |
| 2026-05-04 21:37 | 60.73267 | 11.18852 | 20965 ft | 390 kts | 355° |
| 2026-05-04 21:37 | 60.75971 | 11.19462 | 21705 ft | 393 kts | 355° |
| 2026-05-04 21:38 | 60.78711 | 11.20079 | 22387 ft | 397 kts | 355° |
| 2026-05-04 21:38 | 60.81476 | 11.20702 | 23034 ft | 402 kts | 354° |
| 2026-05-04 21:38 | 60.84272 | 11.21333 | 23663 ft | 407 kts | 354° |
| 2026-05-04 21:38 | 60.87103 | 11.21971 | 24286 ft | 412 kts | 354° |
| 2026-05-04 21:39 | 60.89970 | 11.22620 | 24907 ft | 416 kts | 354° |
| 2026-05-04 21:39 | 60.92853 | 11.23274 | 25515 ft | 419 kts | 354° |
| 2026-05-04 21:39 | 60.95772 | 11.23937 | 26048 ft | 424 kts | 354° |
| 2026-05-04 21:39 | 60.98720 | 11.24608 | 26599 ft | 429 kts | 355° |
| 2026-05-04 21:40 | 61.01696 | 11.25287 | 27138 ft | 432 kts | 355° |
| 2026-05-04 21:40 | 61.04698 | 11.25976 | 27674 ft | 436 kts | 355° |
| 2026-05-04 21:40 | 61.07719 | 11.26670 | 28176 ft | 439 kts | 355° |
| 2026-05-04 21:40 | 61.10770 | 11.27371 | 28657 ft | 443 kts | 355° |
| 2026-05-04 21:41 | 61.13848 | 11.28079 | 29113 ft | 446 kts | 355° |
| 2026-05-04 21:41 | 61.16940 | 11.28793 | 29536 ft | 449 kts | 355° |
| 2026-05-04 21:41 | 61.20057 | 11.29514 | 29968 ft | 453 kts | 355° |
| 2026-05-04 21:41 | 61.23202 | 11.30241 | 30348 ft | 457 kts | 355° |
| 2026-05-04 21:42 | 61.26376 | 11.30978 | 30740 ft | 460 kts | 356° |
| 2026-05-04 21:42 | 61.29526 | 11.31712 | 31124 ft | 463 kts | 356° |
| 2026-05-04 21:42 | 61.32742 | 11.32464 | 31481 ft | 466 kts | 356° |
| 2026-05-04 21:42 | 61.35980 | 11.33220 | 31799 ft | 470 kts | 356° |
| 2026-05-04 21:43 | 61.39239 | 11.33982 | 32119 ft | 472 kts | 356° |
| 2026-05-04 21:43 | 61.42489 | 11.34750 | 32615 ft | 469 kts | 357° |
| 2026-05-04 21:43 | 61.45728 | 11.35520 | 33164 ft | 467 kts | 357° |
| 2026-05-04 21:43 | 61.48951 | 11.36281 | 33558 ft | 467 kts | 357° |
| 2026-05-04 21:44 | 61.52187 | 11.37042 | 33881 ft | 469 kts | 357° |
| 2026-05-04 21:44 | 61.55423 | 11.37803 | 34250 ft | 468 kts | 358° |
| 2026-05-04 21:44 | 61.58662 | 11.38569 | 34649 ft | 467 kts | 358° |
| 2026-05-04 21:44 | 61.61891 | 11.39336 | 35025 ft | 467 kts | 358° |
| 2026-05-04 21:45 | 61.65117 | 11.40103 | 35371 ft | 467 kts | 358° |
| 2026-05-04 21:45 | 61.68345 | 11.40873 | 35729 ft | 466 kts | 358° |
| 2026-05-04 21:45 | 61.71568 | 11.41640 | 36005 ft | 467 kts | 359° |
| 2026-05-04 21:45 | 61.74800 | 11.42411 | 36307 ft | 467 kts | 359° |
| 2026-05-04 21:46 | 61.78027 | 11.43184 | 36627 ft | 467 kts | 359° |
| 2026-05-04 21:46 | 61.81244 | 11.43960 | 37023 ft | 463 kts | 359° |
| 2026-05-04 21:46 | 61.84427 | 11.44732 | 37545 ft | 457 kts | 359° |
| 2026-05-04 21:46 | 61.87568 | 11.45494 | 37946 ft | 454 kts | 359° |
| 2026-05-04 21:47 | 61.90725 | 11.46252 | 38113 ft | 457 kts | 359° |
| 2026-05-04 21:47 | 61.93893 | 11.47013 | 38230 ft | 460 kts | 360° |
| 2026-05-04 21:47 | 61.97076 | 11.47782 | 38428 ft | 461 kts | 360° |
| 2026-05-04 21:47 | 62.00255 | 11.48557 | 38684 ft | 459 kts | 360° |
| 2026-05-04 21:48 | 62.03423 | 11.49309 | 38953 ft | 458 kts | 360° |
| 2026-05-04 21:48 | 62.06598 | 11.50036 | 39144 ft | 459 kts | 360° |
| 2026-05-04 21:48 | 62.09777 | 11.50750 | 39280 ft | 461 kts | 360° |
| 2026-05-04 21:48 | 62.12974 | 11.51466 | 39462 ft | 462 kts | 360° |
| 2026-05-04 21:49 | 62.16170 | 11.52188 | 39624 ft | 462 kts | 0° |
| 2026-05-04 21:49 | 62.19372 | 11.52916 | 39782 ft | 463 kts | 0° |
| 2026-05-04 21:49 | 62.22554 | 11.53643 | 39976 ft | 464 kts | 0° |
| 2026-05-04 21:49 | 62.25755 | 11.54380 | 40182 ft | 464 kts | 0° |
| 2026-05-04 21:50 | 62.28972 | 11.55123 | 40336 ft | 464 kts | 0° |
| 2026-05-04 21:50 | 62.32190 | 11.55867 | 40458 ft | 466 kts | 1° |
| 2026-05-04 21:50 | 62.35416 | 11.56615 | 40608 ft | 467 kts | 1° |
| 2026-05-04 21:51 | 62.41893 | 11.58121 | 40691 ft | 469 kts | 1° |
| 2026-05-04 21:51 | 62.48372 | 11.59637 | 40682 ft | 467 kts | 1° |
| 2026-05-04 21:52 | 62.54818 | 11.61153 | 40688 ft | 465 kts | 1° |
| 2026-05-04 21:52 | 62.61185 | 11.62653 | 40688 ft | 463 kts | 1° |
| 2026-05-04 21:53 | 62.67578 | 11.64164 | 40691 ft | 462 kts | 1° |
| 2026-05-04 21:53 | 62.73961 | 11.65680 | 40695 ft | 461 kts | 1° |
| 2026-05-04 21:54 | 62.80338 | 11.67201 | 40702 ft | 462 kts | 1° |
| 2026-05-04 21:54 | 62.86740 | 11.68734 | 40696 ft | 463 kts | 1° |
| 2026-05-04 21:55 | 62.93149 | 11.70276 | 40710 ft | 464 kts | 1° |
| 2026-05-04 21:55 | 62.99580 | 11.71831 | 40709 ft | 466 kts | 1° |
| 2026-05-04 21:56 | 63.06031 | 11.73398 | 40714 ft | 467 kts | 1° |
| 2026-05-04 21:56 | 63.12505 | 11.74978 | 40722 ft | 468 kts | 1° |
| 2026-05-04 21:57 | 63.17894 | 11.76299 | 40720 ft | 469 kts | 1° |
| 2026-05-04 21:57 | 63.24382 | 11.77896 | 40721 ft | 469 kts | 2° |
| 2026-05-04 21:58 | 63.31923 | 11.79761 | 40731 ft | 469 kts | 1° |
| 2026-05-04 21:58 | 63.38376 | 11.82179 | 40741 ft | 473 kts | 10° |
| 2026-05-04 21:59 | 63.43704 | 11.85403 | 40728 ft | 474 kts | 12° |
| 2026-05-04 21:59 | 63.50006 | 11.89422 | 40734 ft | 474 kts | 11° |
| 2026-05-04 22:00 | 63.56345 | 11.93374 | 40738 ft | 473 kts | 11° |
| 2026-05-04 22:00 | 63.62689 | 11.97252 | 40727 ft | 472 kts | 11° |
| 2026-05-04 22:01 | 63.69023 | 12.01110 | 40726 ft | 472 kts | 11° |
| 2026-05-04 22:01 | 63.75361 | 12.04985 | 40722 ft | 472 kts | 11° |
| 2026-05-04 22:02 | 63.81697 | 12.08882 | 40722 ft | 472 kts | 11° |
| 2026-05-04 22:02 | 63.88032 | 12.12801 | 40713 ft | 472 kts | 11° |
| 2026-05-04 22:03 | 63.94357 | 12.16731 | 40709 ft | 471 kts | 11° |
| 2026-05-04 22:03 | 64.00679 | 12.20678 | 40714 ft | 471 kts | 11° |
| 2026-05-04 22:04 | 64.06991 | 12.24637 | 40715 ft | 471 kts | 11° |
| 2026-05-04 22:04 | 64.13310 | 12.28619 | 40712 ft | 471 kts | 11° |
| 2026-05-04 22:05 | 64.19625 | 12.32616 | 40712 ft | 471 kts | 11° |
| 2026-05-04 22:05 | 64.25936 | 12.36631 | 40712 ft | 471 kts | 11° |
| 2026-05-04 22:06 | 64.32249 | 12.40667 | 40710 ft | 471 kts | 11° |
| 2026-05-04 22:06 | 64.38512 | 12.44688 | 40712 ft | 471 kts | 12° |
| 2026-05-04 22:07 | 64.44825 | 12.48772 | 40704 ft | 471 kts | 12° |
| 2026-05-04 22:07 | 64.51137 | 12.52864 | 40709 ft | 471 kts | 12° |
| 2026-05-04 22:08 | 64.57455 | 12.56973 | 40705 ft | 472 kts | 12° |
| 2026-05-04 22:08 | 64.63780 | 12.61111 | 40695 ft | 472 kts | 12° |
| 2026-05-04 22:09 | 64.70104 | 12.65271 | 40699 ft | 472 kts | 12° |
| 2026-05-04 22:09 | 64.76438 | 12.69458 | 40684 ft | 472 kts | 12° |
| 2026-05-04 22:10 | 64.82715 | 12.74099 | 40680 ft | 474 kts | 16° |
| 2026-05-04 22:10 | 64.88858 | 12.79447 | 40680 ft | 474 kts | 17° |
| 2026-05-04 22:11 | 64.95025 | 12.84906 | 40688 ft | 473 kts | 17° |
| 2026-05-04 22:11 | 65.01204 | 12.90276 | 40675 ft | 473 kts | 17° |
| 2026-05-04 22:12 | 65.07390 | 12.95617 | 40660 ft | 473 kts | 17° |
| 2026-05-04 22:12 | 65.13574 | 13.00971 | 40672 ft | 473 kts | 17° |
| 2026-05-04 22:13 | 65.19757 | 13.06354 | 40666 ft | 473 kts | 17° |
| 2026-05-04 22:13 | 65.25936 | 13.11764 | 40656 ft | 473 kts | 17° |
| 2026-05-04 22:14 | 65.32111 | 13.17198 | 40650 ft | 473 kts | 17° |
| 2026-05-04 22:14 | 65.38286 | 13.22661 | 40650 ft | 473 kts | 18° |
| 2026-05-04 22:15 | 65.44467 | 13.28156 | 40430 ft | 477 kts | 18° |
| 2026-05-04 22:15 | 65.47597 | 13.30946 | 39843 ft | 481 kts | 18° |
| 2026-05-04 22:15 | 65.50733 | 13.33752 | 39211 ft | 480 kts | 18° |
| 2026-05-04 22:15 | 65.53851 | 13.36550 | 38561 ft | 478 kts | 18° |
| 2026-05-04 22:16 | 65.56969 | 13.39356 | 37887 ft | 478 kts | 18° |
| 2026-05-04 22:16 | 65.60084 | 13.42165 | 37192 ft | 478 kts | 18° |
| 2026-05-04 22:16 | 65.63195 | 13.44978 | 36479 ft | 477 kts | 18° |
| 2026-05-04 22:16 | 65.66309 | 13.47799 | 35744 ft | 477 kts | 18° |
| 2026-05-04 22:17 | 65.69418 | 13.50626 | 34950 ft | 478 kts | 18° |
| 2026-05-04 22:17 | 65.72536 | 13.53465 | 34130 ft | 479 kts | 18° |
| 2026-05-04 22:17 | 65.75620 | 13.56281 | 33296 ft | 480 kts | 18° |
| 2026-05-04 22:17 | 65.78794 | 13.59184 | 32402 ft | 482 kts | 18° |
| 2026-05-04 22:18 | 65.81890 | 13.62026 | 31680 ft | 480 kts | 18° |
| 2026-05-04 22:18 | 65.84991 | 13.64883 | 31039 ft | 474 kts | 18° |
| 2026-05-04 22:18 | 65.88060 | 13.67718 | 30402 ft | 469 kts | 18° |
| 2026-05-04 22:18 | 65.91091 | 13.70525 | 29773 ft | 463 kts | 19° |
| 2026-05-04 22:19 | 65.94087 | 13.73306 | 29163 ft | 457 kts | 19° |
| 2026-05-04 22:19 | 65.97041 | 13.76054 | 28543 ft | 451 kts | 19° |
| 2026-05-04 22:19 | 65.99956 | 13.78770 | 27936 ft | 445 kts | 19° |
| 2026-05-04 22:19 | 66.02834 | 13.81458 | 27324 ft | 440 kts | 19° |
| 2026-05-04 22:20 | 66.05673 | 13.84117 | 26723 ft | 434 kts | 19° |
| 2026-05-04 22:20 | 66.08475 | 13.86747 | 26132 ft | 429 kts | 20° |
| 2026-05-04 22:20 | 66.11251 | 13.89357 | 25546 ft | 423 kts | 20° |
| 2026-05-04 22:20 | 66.13989 | 13.91940 | 24964 ft | 418 kts | 20° |
| 2026-05-04 22:21 | 66.16692 | 13.94492 | 24397 ft | 413 kts | 20° |
| 2026-05-04 22:21 | 66.19358 | 13.97015 | 23838 ft | 408 kts | 20° |
| 2026-05-04 22:21 | 66.21987 | 13.99511 | 23267 ft | 402 kts | 20° |
| 2026-05-04 22:21 | 66.24585 | 14.01985 | 22729 ft | 398 kts | 20° |
| 2026-05-04 22:22 | 66.27151 | 14.04433 | 22191 ft | 393 kts | 20° |
| 2026-05-04 22:22 | 66.29686 | 14.06859 | 21654 ft | 388 kts | 20° |
| 2026-05-04 22:22 | 66.32192 | 14.09261 | 21124 ft | 384 kts | 20° |
| 2026-05-04 22:22 | 66.34671 | 14.11643 | 20601 ft | 380 kts | 20° |
| 2026-05-04 22:23 | 66.37127 | 14.14005 | 20081 ft | 376 kts | 20° |
| 2026-05-04 22:23 | 66.39550 | 14.16339 | 19571 ft | 372 kts | 20° |
| 2026-05-04 22:23 | 66.41921 | 14.18629 | 19060 ft | 368 kts | 20° |
| 2026-05-04 22:23 | 66.44298 | 14.20930 | 18568 ft | 365 kts | 20° |
| 2026-05-04 22:24 | 66.46650 | 14.23212 | 18071 ft | 361 kts | 20° |
| 2026-05-04 22:24 | 66.48981 | 14.25478 | 17583 ft | 358 kts | 20° |
| 2026-05-04 22:24 | 66.51290 | 14.27724 | 17088 ft | 354 kts | 20° |
| 2026-05-04 22:24 | 66.53576 | 14.29956 | 16596 ft | 351 kts | 20° |
| 2026-05-04 22:25 | 66.55841 | 14.32172 | 16120 ft | 348 kts | 20° |
| 2026-05-04 22:25 | 66.58083 | 14.34369 | 15638 ft | 344 kts | 20° |
| 2026-05-04 22:25 | 66.60300 | 14.36546 | 15155 ft | 341 kts | 20° |
| 2026-05-04 22:25 | 66.62502 | 14.38712 | 14684 ft | 338 kts | 19° |
| 2026-05-04 22:26 | 66.64682 | 14.40859 | 14214 ft | 335 kts | 19° |
| 2026-05-04 22:26 | 66.66844 | 14.42994 | 13741 ft | 332 kts | 19° |
| 2026-05-04 22:26 | 66.68979 | 14.45107 | 13276 ft | 327 kts | 19° |
| 2026-05-04 22:26 | 66.71087 | 14.47196 | 12819 ft | 324 kts | 19° |
| 2026-05-04 22:27 | 66.73170 | 14.49263 | 12368 ft | 320 kts | 19° |
| 2026-05-04 22:27 | 66.75230 | 14.51312 | 11912 ft | 316 kts | 19° |
| 2026-05-04 22:27 | 66.77262 | 14.53331 | 11486 ft | 312 kts | 19° |
| 2026-05-04 22:27 | 66.79268 | 14.55333 | 11037 ft | 309 kts | 19° |
| 2026-05-04 22:28 | 66.81258 | 14.57324 | 10596 ft | 306 kts | 19° |
| 2026-05-04 22:28 | 66.83238 | 14.59311 | 10151 ft | 306 kts | 19° |
| 2026-05-04 22:28 | 66.85187 | 14.61270 | 9987 ft | 296 kts | 19° |
| 2026-05-04 22:28 | 66.87067 | 14.63171 | 9827 ft | 285 kts | 19° |
| 2026-05-04 22:29 | 66.88871 | 14.64987 | 9706 ft | 273 kts | 19° |
| 2026-05-04 22:29 | 66.90580 | 14.66708 | 9593 ft | 262 kts | 19° |
| 2026-05-04 22:29 | 66.92256 | 14.68400 | 9340 ft | 258 kts | 18° |
| 2026-05-04 22:29 | 66.93910 | 14.70070 | 9057 ft | 255 kts | 18° |
| 2026-05-04 22:30 | 66.95576 | 14.71756 | 8758 ft | 253 kts | 19° |
| 2026-05-04 22:30 | 66.97188 | 14.73386 | 8461 ft | 252 kts | 19° |
| 2026-05-04 22:30 | 66.98812 | 14.75031 | 8160 ft | 251 kts | 19° |
| 2026-05-04 22:30 | 67.00429 | 14.76673 | 7866 ft | 249 kts | 19° |
| 2026-05-04 22:31 | 67.02034 | 14.78309 | 7584 ft | 248 kts | 19° |
| 2026-05-04 22:31 | 67.03628 | 14.79937 | 7302 ft | 246 kts | 19° |
| 2026-05-04 22:31 | 67.05218 | 14.81560 | 7027 ft | 245 kts | 19° |
| 2026-05-04 22:31 | 67.06815 | 14.83188 | 6789 ft | 251 kts | 19° |
| 2026-05-04 22:32 | 67.08454 | 14.84870 | 6553 ft | 256 kts | 19° |
| 2026-05-04 22:32 | 67.10121 | 14.86578 | 6305 ft | 259 kts | 19° |
| 2026-05-04 22:32 | 67.11795 | 14.88296 | 6054 ft | 258 kts | 19° |
| 2026-05-04 22:32 | 67.13456 | 14.90007 | 5828 ft | 254 kts | 19° |
| 2026-05-04 22:33 | 67.15131 | 14.91155 | 5514 ft | 249 kts | 2° |
| 2026-05-04 22:33 | 67.16823 | 14.90574 | 5338 ft | 232 kts | 337° |
| 2026-05-04 22:33 | 67.18119 | 14.88483 | 4980 ft | 223 kts | 315° |
| 2026-05-04 22:33 | 67.19189 | 14.85638 | 4566 ft | 219 kts | 313° |
| 2026-05-04 22:34 | 67.20214 | 14.82841 | 4286 ft | 210 kts | 312° |
| 2026-05-04 22:34 | 67.21187 | 14.80156 | 4020 ft | 200 kts | 313° |
| 2026-05-04 22:34 | 67.22126 | 14.77603 | 3697 ft | 195 kts | 311° |
| 2026-05-04 22:34 | 67.22966 | 14.74840 | 3343 ft | 194 kts | 304° |
| 2026-05-04 22:35 | 67.23702 | 14.71940 | 2972 ft | 192 kts | 301° |
| 2026-05-04 22:35 | 67.24336 | 14.68988 | 2732 ft | 184 kts | 295° |
| 2026-05-04 22:35 | 67.24830 | 14.66051 | 2497 ft | 175 kts | 290° |
| 2026-05-04 22:35 | 67.25260 | 14.63115 | 2204 ft | 170 kts | 290° |
| 2026-05-04 22:36 | 67.25648 | 14.60279 | 1871 ft | 168 kts | 287° |
| 2026-05-04 22:36 | 67.25994 | 14.57439 | 1473 ft | 164 kts | 287° |
| 2026-05-04 22:36 | 67.26329 | 14.54748 | 1252 ft | 151 kts | 285° |
| 2026-05-04 22:36 | 67.26601 | 14.52342 | 1225 ft | 123 kts | 282° |
| 2026-05-04 22:37 | 67.26802 | 14.50287 | 1048 ft | 120 kts | 284° |
| 2026-05-04 22:37 | 67.27102 | 14.48262 | 852 ft | 124 kts | 290° |
| 2026-05-04 22:37 | 67.27395 | 14.46111 | 694 ft | 128 kts | 286° |
| 2026-05-04 22:37 | 67.27517 | 14.43843 | 490 ft | 129 kts | 269° |
| 2026-05-04 22:38 | 67.27344 | 14.41571 | 274 ft | 128 kts | 254° |
| 2026-05-04 22:38 | 67.27154 | 14.39329 | 62 ft | 127 kts | 258° |
| 2026-05-04 22:38 | 67.27001 | 14.37348 | 46 ft | 95 kts | 258° |
| 2026-05-04 22:38 | 67.26908 | 14.36367 | 38 ft | 17 kts | 258° |
| 2026-05-04 22:39 | 67.26993 | 14.36168 | 38 ft | 19 kts | 350° |
| 2026-05-04 22:39 | 67.27044 | 14.36405 | 40 ft | 17 kts | 78° |
| 2026-05-04 22:39 | 67.27066 | 14.36485 | 44 ft | 1 kts | 350° |
| 2026-05-04 22:39 | 67.27081 | 14.36477 | 42 ft | 11 kts | 348° |
| 2026-05-04 22:40 | 67.27149 | 14.36491 | 43 ft | 11 kts | 41° |
| 2026-05-04 22:40 | 67.27172 | 14.36602 | 46 ft | 2 kts | 68° |
| 2026-05-04 22:40 | 67.27175 | 14.36621 | 46 ft | 0 kts | 68° |